Airfield :
LOGIN :

Register | Disclaimer

   EN    FR    IT 

 










Legend :    VFR   Marginal VFR   IFR   Intensive IFR   Very Intensive IFR
Visi :
Ceiling :
>= 8 km
>= 3000ft
5 to 8 km
1000 to 3000 ft
1500m to 5 km
500 to 1000 ft
800 to 1500m
200 to 500 ft
< 800m
< 200 ft
Symbols :   Thunderstorms  Fog  Heavy snow  Heavy precipitations  Wind > 20 kt
SIGMETs :     Misc.  Thunderstorms  Icing  Turbulence  Mountain Waves  Volcanic Ashes







- Airport Elevation : 935 ft


EBFS - Florennes

CURRENT METAR :
  • 190850Z 04010KT 2200 BR SCT003 BKN005 01/01 Q1017 YLO YLO BECMG GRN

EXPIRED METARs :
  • 190833Z 03010KT 1200 BR FEW001 BKN002 01/01 Q1017 AMB YLO TEMPO AMB
  • 190825Z 03011KT 0600 FG SCT001 BKN002 01/00 Q1017 RED YLO TEMPO RED
  • 190803Z 03011KT 0600 FG SCT001 BKN002 01/00 Q1018 RED YLO TEMPO RED
  • 190755Z 03011KT 1500 BR SCT002 BKN003 01/M00 Q1018 AMB YLO TEMPO RED
  • 190725Z 06009KT 6000 SCT004 BKN006 00/M01 Q1018 YLO GRN TEMPO YLO
  • 190655Z 07010KT 6000 SCT005 BKN007 00/M01 Q1018 YLO GRN TEMPO YLO
  • 190633Z 06010KT 6000 SCT005 BKN007 M01/M02 Q1019 YLO GRN TEMPO YLO
  • 190625Z 06009KT 6000 FEW006 BKN008 M01/M02 Q1019 GRN GRN TEMPO YLO
  • 190603Z 07006KT 6000 FEW006 BKN008 M01/M03 Q1019 GRN GRN TEMPO YLO
  • 190547Z 07008KT 6000 FEW008 SCT210 M01/M03 Q1019 WHT GRN TEMPO YLO

TAF TAF EBFS
Valid from the 19 at 07:00 until the 19 at 16:00 UTC


190602Z 1907/1916 06012KT 6000 SCT008 BKN012
PROB30
TEMPO 1907/1909 4000 BR SCT004 BKN008
BECMG 1909/1911 06013G24KT 9999 SCT015 BKN025
PROB30
TEMPO 1909/1916 05018G28KT 2500 -SHRASN SCT012 BKN020
TEMPO 1912/1916 FEW020 SCT030
No reported NOTAMs for that airfield.



MET'MAP, your aeronautical weather chart ! - Copyright ORBIFLY December 2007 - Disclaimer

ORBIFLY MET'MAP TEAM :

Programming & Development : Alexandra Zaïnal
Concept & Development : Baudouin d'Aumeries
Co-Development & Prog : Marc-Olivier Méhu
Technical & hardware support : Manuel Goepfert

Contact : metmap@orbifly.com




SOURCES & CREDITS :

   NOAA